Time;durP1;ratioP1;P1;durP2;ratioP2;P2;SDS_P1;SDS_P2;PMS_P1;PMS_P2;Temp;Humidity;BMP_temperature;BMP_pressure;BME280_temperature;BME280_humidity;BME280_pressure;Samples;Min_cycle;Max_cycle;Signal;HPM_P1;HPM_P2
2022/04/01 00:00:39;;;;;;;23.35;14.40;;;;;;;0.08;100.00;100113.59;5059647;28;20033;-65
2022/04/01 00:03:05;;;;;;;22.83;13.75;;;;;;;0.03;100.00;100122.94;5066291;28;20078;-68
2022/04/01 00:05:33;;;;;;;22.90;13.68;;;;;;;0.01;100.00;100118.53;5064455;28;20036;-66
2022/04/01 00:07:59;;;;;;;22.95;13.15;;;;;;;0.03;100.00;100120.34;5065522;28;20476;-64
2022/04/01 00:10:24;;;;;;;22.40;13.07;;;;;;;-0.03;100.00;100125.31;5065603;28;20115;-64
2022/04/01 00:12:49;;;;;;;22.90;12.98;;;;;;;-0.07;100.00;100121.72;5064326;28;20541;-70
2022/04/01 00:15:15;;;;;;;22.88;13.32;;;;;;;-0.09;100.00;100125.09;5067035;28;20455;-64
2022/04/01 00:17:42;;;;;;;21.98;13.02;;;;;;;-0.11;100.00;100131.97;5063227;28;20017;-64
2022/04/01 00:20:09;;;;;;;22.60;13.05;;;;;;;-0.15;100.00;100135.28;5066882;28;20028;-67
2022/04/01 00:22:35;;;;;;;22.38;12.57;;;;;;;-0.08;100.00;100135.53;5063928;28;20028;-64
2022/04/01 00:25:00;;;;;;;21.75;11.63;;;;;;;-0.17;100.00;100137.81;5065216;28;20025;-67
2022/04/01 00:27:28;;;;;;;22.58;12.05;;;;;;;-0.17;100.00;100140.41;5065294;28;20024;-69
2022/04/01 00:29:53;;;;;;;21.23;11.68;;;;;;;-0.28;100.00;100133.94;5064414;28;20021;-65
2022/04/01 00:32:21;;;;;;;21.95;12.32;;;;;;;-0.28;100.00;100141.72;5065833;28;20081;-64
2022/04/01 00:34:47;;;;;;;21.92;11.45;;;;;;;-0.28;100.00;100131.34;5063476;28;20017;-67
2022/04/01 00:37:14;;;;;;;21.75;12.02;;;;;;;-0.38;100.00;100138.81;5066535;28;20546;-63
2022/04/01 00:39:39;;;;;;;22.15;12.85;;;;;;;-0.43;100.00;100145.53;5062773;28;20070;-64
2022/04/01 00:42:05;;;;;;;22.63;12.45;;;;;;;-0.42;100.00;100149.03;5065581;28;20029;-65
2022/04/01 00:44:33;;;;;;;22.25;12.38;;;;;;;-0.43;100.00;100150.72;5063772;28;20093;-63
2022/04/01 00:47:00;;;;;;;22.48;12.25;;;;;;;-0.50;100.00;100159.09;5046732;28;20415;-64
2022/04/01 00:49:27;;;;;;;21.98;12.10;;;;;;;-0.52;100.00;100155.56;5064711;28;20024;-63
2022/04/01 00:51:55;;;;;;;23.00;12.77;;;;;;;-0.55;100.00;100155.47;5063915;28;20031;-62
2022/04/01 00:54:20;;;;;;;22.05;12.18;;;;;;;-0.51;100.00;100153.84;5065304;28;20418;-63
2022/04/01 00:56:46;;;;;;;23.58;12.52;;;;;;;-0.55;100.00;100163.25;5062894;28;20021;-62
2022/04/01 00:59:12;;;;;;;22.63;12.75;;;;;;;-0.63;100.00;100160.34;5066203;28;20028;-63
2022/04/01 01:01:40;;;;;;;22.58;12.07;;;;;;;-0.58;100.00;100161.41;5062896;28;20427;-62
2022/04/01 01:04:09;;;;;;;22.67;12.65;;;;;;;-0.56;100.00;100159.75;5065457;28;20079;-62
2022/04/01 01:06:38;;;;;;;22.00;12.20;;;;;;;-0.58;100.00;100170.94;5063141;28;20120;-62
2022/04/01 01:09:04;;;;;;;22.83;12.73;;;;;;;-0.60;100.00;100162.19;5064878;28;20511;-63
2022/04/01 01:11:35;;;;;;;22.63;12.07;;;;;;;-0.51;100.00;100167.75;5063797;28;20020;-63
2022/04/01 01:14:01;;;;;;;22.58;12.18;;;;;;;-0.52;100.00;100171.16;5064812;28;20021;-62
2022/04/01 01:16:26;;;;;;;21.85;12.30;;;;;;;-0.50;100.00;100171.22;5063942;28;20107;-63
2022/04/01 01:19:07;;;;;;;21.85;12.23;;;;;;;-0.54;100.00;100171.09;5063086;28;20033;-63
2022/04/01 01:21:33;;;;;;;20.90;10.75;;;;;;;-0.57;100.00;100173.59;5063145;28;20036;-63
2022/04/01 01:24:04;;;;;;;21.35;11.25;;;;;;;-0.61;100.00;100174.28;5064296;28;20033;-63
2022/04/01 01:26:31;;;;;;;22.02;11.02;;;;;;;-0.63;100.00;100173.31;5063469;28;20024;-63
2022/04/01 01:28:57;;;;;;;20.85;10.98;;;;;;;-0.64;100.00;100175.84;5063497;28;20021;-63
2022/04/01 01:31:24;;;;;;;22.33;11.15;;;;;;;-0.65;100.00;100177.59;5064322;28;20032;-63
2022/04/01 01:33:50;;;;;;;21.65;11.25;;;;;;;-0.69;100.00;100180.88;5062362;28;20021;-63
2022/04/01 01:36:16;;;;;;;22.42;11.55;;;;;;;-0.69;100.00;100178.28;5064805;28;20479;-62
2022/04/01 01:38:41;;;;;;;21.30;11.43;;;;;;;-0.71;100.00;100173.03;5062138;28;20068;-63
2022/04/01 01:41:06;;;;;;;22.25;11.57;;;;;;;-0.66;100.00;100181.00;5064513;28;20033;-63
2022/04/01 01:43:32;;;;;;;22.08;11.90;;;;;;;-0.66;100.00;100177.53;5062877;28;20028;-63
2022/04/01 01:45:58;;;;;;;21.48;11.95;;;;;;;-0.73;100.00;100172.09;5063338;28;20393;-63
2022/04/01 01:48:24;;;;;;;22.95;12.27;;;;;;;-0.71;100.00;100174.75;5064059;28;20025;-63
2022/04/01 01:56:17;;;;;;;22.75;12.00;;;;;;;-0.75;100.00;100178.91;5058917;28;20040;-62
2022/04/01 01:58:43;;;;;;;22.77;12.77;;;;;;;-0.73;100.00;100187.69;5064839;28;20028;-63
2022/04/01 02:01:09;;;;;;;22.52;12.68;;;;;;;-0.76;100.00;100187.56;5061395;28;20033;-69
2022/04/01 02:03:35;;;;;;;23.75;13.32;;;;;;;-0.75;100.00;100194.50;5064022;28;20024;-68
2022/04/01 02:06:00;;;;;;;23.40;13.23;;;;;;;-0.73;100.00;100192.88;5062819;28;20024;-66
2022/04/01 02:08:25;;;;;;;22.42;12.80;;;;;;;-0.63;100.00;100188.91;5062555;28;20468;-64
2022/04/01 02:10:51;;;;;;;22.83;13.23;;;;;;;-0.72;100.00;100189.44;5063879;28;20040;-67
2022/04/01 02:13:17;;;;;;;22.50;12.65;;;;;;;-0.70;100.00;100192.06;5061207;28;20033;-69
2022/04/01 02:15:42;;;;;;;22.00;12.05;;;;;;;-0.74;100.00;100185.91;5064521;28;20024;-69
2022/04/01 02:18:10;;;;;;;22.23;12.70;;;;;;;-0.73;100.00;100203.25;5061502;28;20052;-66
2022/04/01 02:20:36;;;;;;;23.35;13.10;;;;;;;-0.71;100.00;100200.72;5063957;28;20039;-64
2022/04/01 02:23:01;;;;;;;22.08;12.90;;;;;;;-0.72;100.00;100205.00;5062407;28;20407;-64
2022/04/01 02:25:27;;;;;;;22.88;13.20;;;;;;;-0.68;100.00;100194.72;5062859;28;20019;-69
2022/04/01 02:27:53;;;;;;;23.45;12.85;;;;;;;-0.62;100.00;100205.38;5063486;28;20078;-67
2022/04/01 02:30:18;;;;;;;22.10;12.48;;;;;;;-0.68;100.00;100206.03;5061091;28;20024;-66
2022/04/01 02:32:43;;;;;;;22.42;12.48;;;;;;;-0.67;100.00;100206.91;5064597;28;20021;-63
2022/04/01 02:35:10;;;;;;;22.60;12.95;;;;;;;-0.64;100.00;100217.41;5061260;28;20024;-63
2022/04/01 02:37:36;;;;;;;22.25;12.68;;;;;;;-0.66;100.00;100208.69;5063931;28;20033;-67
2022/04/01 02:40:03;;;;;;;21.75;12.32;;;;;;;-0.64;100.00;100212.22;5062190;28;20390;-66
2022/04/01 02:42:28;;;;;;;22.27;12.82;;;;;;;-0.63;100.00;100220.06;5062496;28;20029;-69
2022/04/01 02:44:54;;;;;;;22.73;12.63;;;;;;;-0.67;100.00;100218.19;5063102;28;20048;-67
2022/04/01 02:47:20;;;;;;;22.05;12.70;;;;;;;-0.68;100.00;100225.88;5061188;28;20056;-66
2022/04/01 02:49:45;;;;;;;22.15;12.68;;;;;;;-0.73;100.00;100229.22;5045672;28;20059;-70
2022/04/01 02:52:11;;;;;;;23.83;12.93;;;;;;;-0.73;100.00;100229.22;5056711;28;20464;-66
2022/04/01 02:54:36;;;;;;;22.48;12.55;;;;;;;-0.73;100.00;100229.22;5063510;28;20029;-67
2022/04/01 02:57:04;;;;;;;23.17;13.07;;;;;;;-0.76;100.00;100239.47;5062036;28;20463;-69
2022/04/01 02:59:30;;;;;;;22.95;12.75;;;;;;;-0.79;100.00;100234.13;5062780;28;20048;-68
2022/04/01 03:01:55;;;;;;;22.50;13.05;;;;;;;-0.80;100.00;100239.25;5062646;28;20468;-63
2022/04/01 03:04:21;;;;;;;22.55;13.40;;;;;;;-0.82;100.00;100241.81;5061034;28;20032;-68
2022/04/01 03:06:47;;;;;;;22.58;12.85;;;;;;;-0.81;100.00;100242.72;5067483;28;20060;-66
2022/04/01 03:09:13;;;;;;;22.63;13.38;;;;;;;-0.80;100.00;100245.38;5064617;28;20025;-63
2022/04/01 03:11:39;;;;;;;24.80;14.55;;;;;;;-0.77;100.00;100247.16;5067885;28;20077;-63
2022/04/01 03:14:06;;;;;;;24.02;14.82;;;;;;;-0.81;100.00;100250.50;5065485;28;20395;-63
2022/04/01 03:16:32;;;;;;;23.85;14.50;;;;;;;-0.80;100.00;100250.56;5066975;28;20079;-63
2022/04/01 03:18:59;;;;;;;24.60;15.50;;;;;;;-0.81;100.00;100251.38;5066095;28;20028;-63
2022/04/01 03:21:25;;;;;;;25.05;15.43;;;;;;;-0.86;100.00;100258.06;5065923;28;20024;-63
2022/04/01 03:23:51;;;;;;;25.23;15.57;;;;;;;-0.83;100.00;100255.63;5067329;28;20028;-64
2022/04/01 03:26:17;;;;;;;24.98;15.85;;;;;;;-0.86;100.00;100258.06;5064427;28;20385;-63
2022/04/01 03:28:43;;;;;;;25.08;16.02;;;;;;;-0.79;100.00;100265.28;5067971;28;20033;-63
2022/04/01 03:31:09;;;;;;;25.42;16.27;;;;;;;-0.80;100.00;100265.22;5064726;28;20037;-63
2022/04/01 03:33:36;;;;;;;25.83;15.68;;;;;;;-0.88;100.00;100264.91;5066648;28;20138;-63
2022/04/01 03:36:03;;;;;;;25.17;15.60;;;;;;;-0.81;100.00;100279.03;5065463;28;20071;-63
2022/04/01 03:38:30;;;;;;;25.55;16.98;;;;;;;-0.91;100.00;100269.97;5065877;28;20095;-63
2022/04/01 03:40:57;;;;;;;26.25;16.67;;;;;;;-0.96;100.00;100272.41;5066347;28;20035;-62
2022/04/01 03:43:24;;;;;;;25.60;16.55;;;;;;;-0.95;100.00;100281.06;5064993;28;20032;-63
2022/04/01 03:45:52;;;;;;;25.52;16.48;;;;;;;-0.81;100.00;100287.72;5066698;28;20051;-63
2022/04/01 03:48:32;;;;;;;25.17;16.30;;;;;;;-0.89;100.00;100284.81;5064175;28;20083;-62
2022/04/01 03:50:58;;;;;;;25.30;16.60;;;;;;;-0.92;100.00;100288.97;5065952;28;20037;-63
2022/04/01 03:53:29;;;;;;;26.45;16.67;;;;;;;-0.90;100.00;100287.34;5065086;28;20025;-62
2022/04/01 03:55:57;;;;;;;24.88;16.02;;;;;;;-0.96;100.00;100287.97;5065992;28;20028;-63
2022/04/01 03:58:28;;;;;;;24.88;15.73;;;;;;;-0.92;100.00;100291.56;5064501;28;20021;-62
2022/04/01 04:00:54;;;;;;;25.23;15.73;;;;;;;-0.96;100.00;100293.16;5066529;28;20028;-63
2022/04/01 04:03:20;;;;;;;25.33;16.05;;;;;;;-0.99;100.00;100303.41;5063832;28;20025;-63
2022/04/01 04:05:47;;;;;;;25.60;16.58;;;;;;;-1.00;100.00;100303.34;5067027;28;20048;-63
2022/04/01 04:08:17;;;;;;;25.63;16.13;;;;;;;-1.02;100.00;100299.78;5060026;28;20053;-64
2022/04/01 04:10:46;;;;;;;25.80;16.27;;;;;;;-1.06;100.00;100309.16;5059677;28;20056;-71
2022/04/01 04:13:12;;;;;;;25.52;16.67;;;;;;;-1.04;100.00;100306.63;5066649;28;20024;-72
2022/04/01 04:16:04;;;;;;;26.15;16.80;;;;;;;-1.10;100.00;100313.31;5063945;28;20096;-65
2022/04/01 04:18:34;;;;;;;27.08;17.25;;;;;;;-1.11;100.00;100319.31;5062625;28;20108;-64
2022/04/01 04:20:59;;;;;;;25.38;16.60;;;;;;;-1.04;100.00;100323.06;5065101;28;20426;-65
2022/04/01 04:23:46;;;;;;;25.80;16.58;;;;;;;-1.06;100.00;100322.13;5064546;28;20025;-64
2022/04/01 04:26:15;;;;;;;26.33;17.55;;;;;;;-1.09;100.00;100330.66;5063032;28;20048;-68
2022/04/01 04:28:49;;;;;;;25.17;16.13;;;;;;;-0.94;100.00;100321.75;5066387;28;20028;-71
2022/04/01 04:31:19;;;;;;;25.15;16.30;;;;;;;-1.04;100.00;100342.97;5059504;28;20159;-68
2022/04/01 04:33:46;;;;;;;26.75;17.58;;;;;;;-1.05;100.00;100336.84;5059523;28;20056;-71
2022/04/01 04:36:16;;;;;;;25.40;16.02;;;;;;;-0.98;100.00;100345.81;5059139;28;20033;-64
2022/04/01 04:38:43;;;;;;;25.42;16.65;;;;;;;-1.02;100.00;100349.09;5066156;28;20036;-65
2022/04/01 04:41:09;;;;;;;25.75;16.02;;;;;;;-1.02;100.00;100349.09;5063456;28;20059;-71
2022/04/01 04:43:40;;;;;;;25.08;15.65;;;;;;;-1.01;100.00;100356.06;5065355;28;20033;-70
2022/04/01 04:46:07;;;;;;;26.13;16.75;;;;;;;-1.07;100.00;100359.25;5063383;28;20048;-69
2022/04/01 04:48:33;;;;;;;24.83;15.68;;;;;;;-1.03;100.00;100363.78;5065108;28;20033;-71
2022/04/01 04:51:02;;;;;;;27.73;16.27;;;;;;;-1.09;100.00;100363.50;5064360;28;20124;-65
2022/04/01 04:53:30;;;;;;;26.48;17.20;;;;;;;-1.06;100.00;100369.72;5064083;28;20025;-64
2022/04/01 04:55:58;;;;;;;25.67;16.88;;;;;;;-1.04;100.00;100374.09;5064989;28;20388;-67
2022/04/01 04:58:30;;;;;;;25.35;16.67;;;;;;;-1.08;100.00;100381.75;5063503;28;20013;-70
2022/04/01 05:01:01;;;;;;;27.13;17.35;;;;;;;-1.08;100.00;100386.94;5064862;28;20017;-68
2022/04/01 05:03:54;;;;;;;25.73;15.77;;;;;;;-1.09;100.00;100392.94;5063654;28;20074;-65
2022/04/01 05:06:27;;;;;;;25.77;16.15;;;;;;;-1.09;100.00;100398.13;5059376;28;20036;-69
2022/04/01 05:08:55;;;;;;;25.35;15.60;;;;;;;-1.08;100.00;100399.00;5065488;28;20029;-64
2022/04/01 05:11:26;;;;;;;25.52;15.70;;;;;;;-1.04;100.00;100418.19;5063116;28;20040;-64
2022/04/01 05:14:11;;;;;;;25.20;15.73;;;;;;;-1.02;100.00;100420.06;5065060;28;20064;-69
2022/04/01 05:16:57;;;;;;;25.35;15.10;;;;;;;-0.99;100.00;100424.47;5064715;28;20112;-64
2022/04/01 05:19:27;;;;;;;25.08;15.15;;;;;;;-1.00;100.00;100430.50;5060291;28;20118;-63
2022/04/01 05:22:09;;;;;;;25.48;15.40;;;;;;;-1.06;100.00;100426.78;5064642;28;20028;-63
2022/04/01 05:24:41;;;;;;;24.15;15.00;;;;;;;-1.07;100.00;100421.53;5064407;28;20116;-63
2022/04/01 05:27:28;;;;;;;25.63;15.07;;;;;;;-0.97;100.00;100421.13;5063034;28;20071;-63
2022/04/01 05:30:18;;;;;;;24.58;15.13;;;;;;;-1.03;100.00;100431.25;5059505;28;20029;-63
2022/04/01 05:33:08;;;;;;;24.73;15.45;;;;;;;-1.00;100.00;100433.09;5051418;28;20029;-62
2022/04/01 05:35:37;;;;;;;24.10;15.02;;;;;;;-1.03;100.00;100443.31;5052929;28;20033;-62
2022/04/01 05:38:04;;;;;;;25.02;15.23;;;;;;;-1.03;100.00;100441.63;5055197;28;20021;-61
2022/04/01 05:40:31;;;;;;;24.90;15.68;;;;;;;-1.05;100.00;100445.84;5056856;28;20028;-61
2022/04/01 05:42:58;;;;;;;25.30;15.48;;;;;;;-1.04;100.00;100455.41;5054256;28;20025;-62
2022/04/01 05:45:26;;;;;;;25.05;15.32;;;;;;;-1.03;100.00;100462.38;5056456;28;20045;-62
2022/04/01 05:47:52;;;;;;;24.08;15.25;;;;;;;-1.08;100.00;100464.78;5058080;28;20036;-61
2022/04/01 05:50:18;;;;;;;25.75;15.02;;;;;;;-1.03;100.00;100461.47;5057321;28;20028;-62
2022/04/01 05:52:48;;;;;;;24.92;15.68;;;;;;;-1.04;100.00;100472.69;5055678;28;20040;-62
2022/04/01 05:55:21;;;;;;;25.02;15.70;;;;;;;-1.06;100.00;100481.28;5053651;28;20052;-61
2022/04/01 05:57:46;;;;;;;23.40;14.10;;;;;;;-1.04;100.00;100476.16;5050736;28;20044;-61
2022/04/01 06:00:13;;;;;;;24.50;14.93;;;;;;;-0.99;100.00;100484.16;5052259;28;20465;-62
2022/04/01 06:02:53;;;;;;;24.35;14.80;;;;;;;-1.01;100.00;100491.88;5053742;28;20029;-62
2022/04/01 06:05:18;;;;;;;24.50;15.05;;;;;;;-1.01;100.00;100491.00;5044853;28;20022;-62
2022/04/01 06:07:51;;;;;;;24.38;14.40;;;;;;;-0.99;100.00;100494.53;5049070;28;20032;-61
2022/04/01 06:10:51;;;;;;;25.25;14.77;;;;;;;-0.96;100.00;100505.94;5058845;28;20072;-61
2022/04/01 06:13:38;;;;;;;24.15;13.95;;;;;;;-1.02;100.00;100507.38;4986852;28;20038;-61
2022/04/01 06:16:31;;;;;;;23.80;13.43;;;;;;;-0.95;100.00;100519.81;4986668;28;20023;-62
2022/04/01 06:19:07;;;;;;;24.13;13.57;;;;;;;-0.97;100.00;100524.06;4984449;28;20036;-62
2022/04/01 06:21:42;;;;;;;22.52;11.63;;;;;;;-0.90;100.00;100516.59;4986552;28;20034;-62
2022/04/01 06:24:10;;;;;;;23.38;13.38;;;;;;;-0.97;100.00;100535.31;4992277;28;20081;-62
2022/04/01 06:26:46;;;;;;;24.13;13.88;;;;;;;-0.92;100.00;100543.31;4991747;28;20035;-62
2022/04/01 06:29:39;;;;;;;22.73;13.30;;;;;;;-0.93;100.00;100539.84;4983318;28;20034;-62
2022/04/01 06:32:26;;;;;;;23.00;12.85;;;;;;;-0.97;100.00;100543.09;4988350;28;20046;-62
2022/04/01 06:35:03;;;;;;;23.42;12.45;;;;;;;-0.93;100.00;100549.34;4985023;28;20030;-62
2022/04/01 06:37:34;;;;;;;23.15;12.40;;;;;;;-0.93;100.00;100554.53;4981245;28;20050;-67
2022/04/01 06:40:06;;;;;;;23.33;12.32;;;;;;;-0.94;100.00;100564.00;4987630;28;20034;-66
2022/04/01 06:42:37;;;;;;;22.90;12.30;;;;;;;-0.92;100.00;100567.56;4987064;28;20030;-63
2022/04/01 06:45:09;;;;;;;22.10;11.57;;;;;;;-0.97;100.00;100565.56;4984367;28;20139;-64
2022/04/01 06:47:36;;;;;;;23.02;11.65;;;;;;;-0.97;100.00;100565.56;4990294;28;20041;-63
2022/04/01 06:50:02;;;;;;;22.25;11.38;;;;;;;-0.96;100.00;100582.91;5029896;28;20039;-63
2022/04/01 06:52:27;;;;;;;22.67;11.10;;;;;;;-0.97;100.00;100578.56;5053847;28;20380;-64
2022/04/01 06:54:54;;;;;;;22.08;10.73;;;;;;;-0.96;100.00;100583.81;5057989;28;20036;-63
2022/04/01 06:57:20;;;;;;;22.55;10.57;;;;;;;-0.93;100.00;100583.06;5060653;28;20021;-68
2022/04/01 06:59:45;;;;;;;21.05;10.00;;;;;;;-0.83;100.00;100576.56;5053139;28;20368;-64
2022/04/01 07:02:11;;;;;;;21.52;10.40;;;;;;;-0.91;100.00;100589.22;5058400;28;20040;-64
2022/04/01 07:04:36;;;;;;;21.40;10.50;;;;;;;-0.90;100.00;100596.19;5056959;28;20021;-68
2022/04/01 07:07:03;;;;;;;20.70;9.27;;;;;;;-0.84;100.00;100599.06;5057355;28;20029;-70
2022/04/01 07:09:28;;;;;;;20.67;9.65;;;;;;;-0.81;100.00;100606.13;5055502;28;20467;-69
2022/04/01 07:11:53;;;;;;;20.40;9.43;;;;;;;-0.81;100.00;100599.19;5052026;28;20029;-73
2022/04/01 07:14:19;;;;;;;20.45;9.75;;;;;;;-0.77;100.00;100606.31;5054798;28;20384;-68
2022/04/01 07:16:44;;;;;;;21.67;9.50;;;;;;;-0.80;100.00;100615.66;5049393;28;20036;-64
2022/04/01 07:19:11;;;;;;;20.75;9.18;;;;;;;-0.73;100.00;100608.25;5056406;28;20025;-63
2022/04/01 07:21:36;;;;;;;21.05;9.57;;;;;;;-0.82;100.00;100612.13;5054883;28;20029;-73
2022/04/01 07:24:02;;;;;;;21.17;9.75;;;;;;;-0.75;100.00;100609.88;5058159;28;20032;-75
2022/04/01 07:26:27;;;;;;;21.67;10.75;;;;;;;-0.75;100.00;100609.88;5057109;28;20029;-73
2022/04/01 07:28:54;;;;;;;21.10;9.60;;;;;;;-0.74;100.00;100621.16;5058661;28;20061;-69
2022/04/01 07:34:04;;;;;;;21.95;9.65;;;;;;;-0.72;100.00;100635.09;5058173;28;20098;-65
2022/04/01 07:36:29;;;;;;;21.23;9.48;;;;;;;-0.68;100.00;100633.50;5050985;28;20107;-65
2022/04/01 07:38:55;;;;;;;20.92;9.30;;;;;;;-0.67;100.00;100641.41;5053821;28;20106;-67
2022/04/01 07:41:20;;;;;;;21.67;9.77;;;;;;;-0.65;100.00;100637.16;5058134;28;20040;-65
2022/04/01 07:43:45;;;;;;;20.67;8.88;;;;;;;-0.60;100.00;100639.94;5054110;28;20036;-64
2022/04/01 07:46:11;;;;;;;19.95;8.88;;;;;;;-0.63;100.00;100652.81;5056695;28;20045;-64
2022/04/01 07:48:37;;;;;;;20.92;9.13;;;;;;;-0.60;100.00;100653.81;5058192;28;20043;-63
2022/04/01 07:51:03;;;;;;;21.33;8.57;;;;;;;-0.57;100.00;100658.25;5055706;28;20032;-63
2022/04/01 07:53:28;;;;;;;20.10;8.65;;;;;;;-0.57;100.00;100661.78;5056329;28;20025;-63
2022/04/01 07:55:53;;;;;;;21.20;9.60;;;;;;;-0.58;100.00;100665.19;5059990;28;20027;-63
2022/04/01 07:58:19;;;;;;;20.60;9.10;;;;;;;-0.58;100.00;100659.09;5059263;28;20033;-63
2022/04/01 08:00:45;;;;;;;20.08;9.00;;;;;;;-0.54;100.00;100659.31;5065225;28;20029;-63
2022/04/01 08:03:11;;;;;;;20.52;8.98;;;;;;;-0.56;100.00;100667.84;5064491;28;20035;-63
2022/04/01 08:05:36;;;;;;;19.95;9.00;;;;;;;-0.53;100.00;100663.66;5066876;28;20025;-63
2022/04/01 08:08:02;;;;;;;20.20;8.48;;;;;;;-0.56;100.00;100671.31;5063671;28;20017;-63
2022/04/01 08:10:27;;;;;;;19.77;8.30;;;;;;;-0.55;100.00;100672.22;5066404;28;20470;-63
2022/04/01 08:12:53;;;;;;;20.27;8.70;;;;;;;-0.61;100.00;100674.50;5064774;28;20029;-63
2022/04/01 08:15:18;;;;;;;19.90;8.90;;;;;;;-0.63;100.00;100683.97;5065199;28;20033;-63
2022/04/01 08:17:44;;;;;;;19.92;8.40;;;;;;;-0.60;100.00;100684.09;5065378;28;20461;-63
2022/04/01 08:20:12;;;;;;;21.52;8.50;;;;;;;-0.57;100.00;100692.94;5064362;28;20035;-63
2022/04/01 08:22:38;;;;;;;20.63;8.68;;;;;;;-0.54;100.00;100693.06;5066304;28;20020;-63
2022/04/01 08:25:04;;;;;;;19.65;8.77;;;;;;;-0.56;100.00;100701.59;5063194;28;20025;-63
2022/04/01 08:27:30;;;;;;;21.17;8.60;;;;;;;-0.49;100.00;100708.88;5059340;28;20441;-63
2022/04/01 08:29:59;;;;;;;19.67;8.35;;;;;;;-0.43;100.00;100701.34;5065864;28;20017;-63
2022/04/01 08:32:25;;;;;;;21.35;8.80;;;;;;;-0.47;100.00;100704.63;5063565;28;20037;-63
2022/04/01 08:34:51;;;;;;;20.67;8.07;;;;;;;-0.37;100.00;100717.22;5065847;28;20025;-70
2022/04/01 08:37:16;;;;;;;19.42;8.07;;;;;;;-0.42;100.00;100716.13;5064976;28;20021;-68
2022/04/01 08:39:43;;;;;;;20.60;8.50;;;;;;;-0.41;100.00;100719.59;5064200;28;20459;-69
2022/04/01 08:42:09;;;;;;;19.65;7.57;;;;;;;-0.40;100.00;100737.84;5066154;28;20044;-63
2022/04/01 08:44:40;;;;;;;18.92;7.57;;;;;;;-0.36;100.00;100726.81;5044867;28;20495;-63
2022/04/01 08:47:10;;;;;;;19.30;7.00;;;;;;;-0.31;100.00;100736.53;5065733;28;20052;-63
2022/04/01 08:49:35;;;;;;;18.10;6.60;;;;;;;-0.20;100.00;100737.91;5063042;28;20070;-64
2022/04/01 08:52:02;;;;;;;19.23;6.47;;;;;;;-0.20;100.00;100741.41;5065998;28;20435;-67
2022/04/01 08:54:31;;;;;;;18.02;6.65;;;;;;;-0.14;100.00;100751.19;5062856;28;20033;-64
2022/04/01 08:56:56;;;;;;;18.52;5.97;;;;;;;-0.02;100.00;100740.47;5065851;28;20036;-64
2022/04/01 08:59:27;;;;;;;17.42;6.20;;;;;;;0.02;100.00;100751.91;5063461;28;20017;-69
2022/04/01 09:02:03;;;;;;;19.02;6.15;;;;;;;0.07;100.00;100759.06;5065266;28;20028;-69
2022/04/01 09:04:28;;;;;;;19.05;5.63;;;;;;;0.17;100.00;100768.16;5062338;28;20056;-63
2022/04/01 09:06:54;;;;;;;18.13;6.30;;;;;;;0.24;100.00;100769.34;5065207;28;20052;-69
2022/04/01 09:09:26;;;;;;;18.48;6.30;;;;;;;0.30;100.00;100765.28;5063607;28;20027;-68
2022/04/01 09:12:28;;;;;;;;;;;;;;;0.50;100.00;100767.91;5065003;28;20086;-66
2022/04/01 09:14:55;;;;;;;18.83;6.20;;;;;;;0.53;100.00;100775.84;4972485;28;20285;-69
2022/04/01 09:17:21;;;;;;;17.95;5.90;;;;;;;0.60;100.00;100772.69;4973191;28;20131;-64
2022/04/01 09:19:46;;;;;;;17.65;5.90;;;;;;;0.66;100.00;100770.34;4970102;28;20114;-65
2022/04/01 09:22:19;;;;;;;17.65;6.18;;;;;;;0.67;100.00;100785.16;4971433;28;20043;-67
2022/04/01 09:24:53;;;;;;;;;;;;;;;0.82;100.00;100781.44;4970786;28;20030;-75
2022/04/01 09:27:19;;;;;;;18.27;5.93;;;;;;;0.82;100.00;100795.31;4970437;28;20352;-75
2022/04/01 09:29:44;;;;;;;18.33;6.05;;;;;;;0.86;100.00;100783.34;4954002;28;20042;-75
2022/04/01 09:32:09;;;;;;;18.42;5.72;;;;;;;0.92;100.00;100786.19;4970289;28;20062;-73
2022/04/01 09:34:37;;;;;;;17.88;5.85;;;;;;;0.95;100.00;100788.06;4965794;28;20045;-70
2022/04/01 09:37:02;;;;;;;18.80;6.00;;;;;;;1.07;100.00;100795.50;4970544;28;20082;-70
2022/04/01 09:39:28;;;;;;;17.30;5.72;;;;;;;1.14;100.00;100793.19;4970567;28;20022;-77
2022/04/01 09:41:55;;;;;;;18.08;5.60;;;;;;;1.22;100.00;100793.50;4970712;28;20051;-73
2022/04/01 09:44:23;;;;;;;18.35;5.78;;;;;;;1.36;100.00;100801.91;4970923;28;20038;-80
2022/04/01 09:46:58;;;;;;;18.52;5.60;;;;;;;1.36;100.00;100797.56;4970575;28;20051;-72
2022/04/01 09:49:31;;;;;;;17.75;5.60;;;;;;;1.42;100.00;100803.88;5031350;28;20049;-70
2022/04/01 09:51:57;;;;;;;17.52;5.30;;;;;;;1.38;100.00;100800.22;5055210;28;20036;-70
2022/04/01 09:54:24;;;;;;;19.38;7.10;;;;;;;1.44;100.00;100797.00;5054519;28;20028;-71
2022/04/01 09:56:58;;;;;;;18.00;5.20;;;;;;;1.42;100.00;100802.13;5059631;28;20025;-65
2022/04/01 09:59:25;;;;;;;15.43;4.78;;;;;;;1.32;100.00;100800.88;5056309;28;20028;-65
2022/04/01 10:01:51;;;;;;;16.38;4.80;;;;;;;1.29;100.00;100811.16;5052939;28;20102;-65
2022/04/01 10:04:16;;;;;;;17.00;4.90;;;;;;;1.33;100.00;100807.88;5052649;28;20024;-65
2022/04/01 10:06:42;;;;;;;16.65;4.90;;;;;;;1.36;100.00;100804.50;5055827;28;20024;-65
2022/04/01 10:09:10;;;;;;;15.57;4.60;;;;;;;1.26;100.00;100810.16;5057283;28;20028;-65
2022/04/01 10:11:38;;;;;;;17.67;5.28;;;;;;;1.32;100.00;100810.41;5051141;28;20029;-66
2022/04/01 10:14:18;;;;;;;16.55;4.93;;;;;;;1.34;100.00;100809.66;5054217;28;20033;-65
2022/04/01 10:16:45;;;;;;;15.20;4.93;;;;;;;1.31;100.00;100806.94;5057376;28;20111;-65
2022/04/01 10:19:32;;;;;;;16.45;4.70;;;;;;;1.36;100.00;100807.09;5062023;28;20029;-65
2022/04/01 10:21:57;;;;;;;18.38;5.60;;;;;;;1.36;100.00;100812.31;5061315;28;20442;-65
2022/04/01 10:24:30;;;;;;;16.55;5.18;;;;;;;1.35;100.00;100808.81;5063782;28;20061;-65
2022/04/01 10:27:04;;;;;;;18.70;6.22;;;;;;;1.47;100.00;100811.03;5060783;28;20071;-65
2022/04/01 10:29:31;;;;;;;17.77;6.05;;;;;;;1.48;100.00;100807.59;5064477;28;20134;-66
2022/04/01 10:32:28;;;;;;;18.63;5.20;;;;;;;1.57;100.00;100817.50;5061537;28;20035;-73
2022/04/01 10:34:56;;;;;;;16.30;5.55;;;;;;;1.58;100.00;100814.06;5062315;28;20528;-73
2022/04/01 10:37:25;;;;;;;17.30;5.93;;;;;;;1.54;100.00;100807.88;5062173;28;20021;-74
2022/04/01 10:39:59;;;;;;;17.02;5.88;;;;;;;1.56;100.00;100816.63;5062549;28;20463;-68
2022/04/01 10:42:31;;;;;;;18.25;6.63;;;;;;;1.53;100.00;100812.97;5061988;28;20127;-67
2022/04/01 10:44:59;;;;;;;16.95;5.20;;;;;;;1.49;100.00;100818.94;5063305;28;20115;-68
2022/04/01 10:51:36;;;;;;;17.30;5.82;;;;;;;1.53;100.00;100818.19;5061949;28;20028;-73
2022/04/01 10:53:41;;;;;;;18.13;5.68;;;;;;;1.50;100.00;100815.47;5060124;28;20660;-73
2022/04/01 10:56:21;;;;;;;17.42;5.70;;;;;;;1.53;100.00;100826.00;5057290;28;20025;-73
2022/04/01 10:59:09;;;;;;;17.23;5.70;;;;;;;1.42;100.00;100828.19;5060431;28;20036;-72
2022/04/01 11:01:39;;;;;;;18.58;6.72;;;;;;;1.41;100.00;100833.34;4991025;28;20045;-72
2022/04/01 11:04:08;;;;;;;18.83;6.90;;;;;;;1.51;100.00;100838.09;4984154;28;20070;-65
2022/04/01 11:06:53;;;;;;;18.17;6.55;;;;;;;1.62;100.00;100834.22;4988647;28;20039;-65
2022/04/01 11:09:52;;;;;;;18.42;6.63;;;;;;;1.59;100.00;100841.91;4989097;28;20034;-65
2022/04/01 11:12:18;;;;;;;19.00;7.00;;;;;;;1.48;100.00;100844.06;4988199;28;20050;-65
2022/04/01 11:15:19;;;;;;;19.48;7.20;;;;;;;1.55;100.00;100843.50;4988282;28;20034;-64
2022/04/01 11:17:44;;;;;;;19.27;7.22;;;;;;;1.52;100.00;100838.16;4988743;28;20041;-64
2022/04/01 11:20:14;;;;;;;19.52;7.38;;;;;;;1.54;100.00;100846.03;4988683;28;20047;-65
2022/04/01 11:22:52;;;;;;;19.35;7.05;;;;;;;1.59;100.00;100841.00;4985422;28;20054;-64
2022/04/01 11:25:24;;;;;;;19.50;7.53;;;;;;;1.51;100.00;100848.53;4984462;28;20493;-65
2022/04/01 11:28:05;;;;;;;20.00;7.70;;;;;;;1.57;100.00;100856.59;4988263;28;20043;-65